createdAt,value
2022-08-23T00:00:20.132Z,18.96
2022-08-23T00:03:49.867Z,18.96
2022-08-23T00:07:18.130Z,18.97
2022-08-23T00:10:45.966Z,19.01
2022-08-23T00:14:15.468Z,19.03
2022-08-23T00:17:44.121Z,19.06
2022-08-23T00:21:11.375Z,19.11
2022-08-23T00:24:40.988Z,19.15
2022-08-23T00:28:14.609Z,19.19
2022-08-23T00:31:42.164Z,19.22
2022-08-23T00:35:14.328Z,19.24
2022-08-23T00:38:53.597Z,19.25
2022-08-23T00:42:49.830Z,19.25
2022-08-23T00:46:42.164Z,19.20
2022-08-23T00:50:37.941Z,19.15
2022-08-23T00:54:17.128Z,19.11
2022-08-23T00:57:44.114Z,19.09
2022-08-23T01:01:15.453Z,19.08
2022-08-23T01:04:50.787Z,19.05
2022-08-23T01:08:17.859Z,19.05
2022-08-23T01:11:51.367Z,19.05
2022-08-23T01:15:24.161Z,19.07
2022-08-23T01:18:51.979Z,19.10
2022-08-23T01:22:22.494Z,19.14
2022-08-23T01:25:50.349Z,19.17
2022-08-23T01:29:17.641Z,19.22
2022-08-23T01:32:52.073Z,19.24
2022-08-23T01:36:20.197Z,19.27
2022-08-23T01:39:49.672Z,19.27
2022-08-23T01:43:20.097Z,19.26
2022-08-23T01:46:49.588Z,19.27
2022-08-23T01:50:22.572Z,19.24
2022-08-23T01:53:51.009Z,19.21
2022-08-23T01:57:18.832Z,19.17
2022-08-23T02:00:46.666Z,19.13
2022-08-23T02:04:15.028Z,19.10
2022-08-23T02:07:42.531Z,19.08
2022-08-23T02:11:13.992Z,19.07
2022-08-23T02:14:42.521Z,19.07
2022-08-23T02:18:20.896Z,19.08
2022-08-23T02:22:03.967Z,19.12
2022-08-23T02:25:34.454Z,19.15
2022-08-23T02:29:01.941Z,19.15
2022-08-23T02:32:32.105Z,19.17
2022-08-23T02:35:59.832Z,19.20
2022-08-23T02:39:27.501Z,19.19
2022-08-23T02:42:54.873Z,19.19
2022-08-23T02:46:23.359Z,19.20
2022-08-23T02:49:52.048Z,19.21
2022-08-23T02:53:19.721Z,19.24
2022-08-23T02:56:47.656Z,19.25
2022-08-23T03:00:18.452Z,19.27
2022-08-23T03:03:46.116Z,19.27
2022-08-23T03:07:14.112Z,19.26
2022-08-23T03:10:45.798Z,19.26
2022-08-23T03:14:13.245Z,19.27
2022-08-23T03:17:40.861Z,19.30
2022-08-23T03:21:12.548Z,19.32
2022-08-23T03:24:39.293Z,19.32
2022-08-23T03:28:09.362Z,19.33
2022-08-23T03:31:38.844Z,19.33
2022-08-23T03:35:15.077Z,19.33
2022-08-23T03:38:45.541Z,19.34
2022-08-23T03:42:12.632Z,19.36
2022-08-23T03:45:44.302Z,19.36
2022-08-23T03:49:14.906Z,19.35
2022-08-23T03:52:50.769Z,19.36
2022-08-23T03:56:27.566Z,19.39
2022-08-23T03:59:54.918Z,19.40
2022-08-23T04:03:21.953Z,19.40
2022-08-23T04:07:03.381Z,19.43
2022-08-23T04:10:31.599Z,19.46
2022-08-23T04:13:59.370Z,19.49
2022-08-23T04:17:26.753Z,19.50
2022-08-23T04:20:54.649Z,19.52
2022-08-23T04:24:24.812Z,19.55
2022-08-23T04:27:51.966Z,19.58
2022-08-23T04:31:23.745Z,19.60
2022-08-23T04:34:51.976Z,19.63
2022-08-23T04:38:25.206Z,19.65
2022-08-23T04:42:16.119Z,19.70
2022-08-23T04:45:45.627Z,19.73
2022-08-23T04:49:24.520Z,19.78
2022-08-23T04:52:52.642Z,19.82
2022-08-23T04:56:20.578Z,19.85
2022-08-23T04:59:47.651Z,19.89
2022-08-23T05:03:16.271Z,19.92
2022-08-23T05:06:46.029Z,19.95
2022-08-23T05:10:17.217Z,20.00
2022-08-23T05:13:48.355Z,20.01
2022-08-23T05:17:16.120Z,20.01
2022-08-23T05:20:44.049Z,20.03
2022-08-23T05:24:13.686Z,20.06
2022-08-23T05:27:43.443Z,20.12
2022-08-23T05:31:14.797Z,20.17
2022-08-23T05:34:47.142Z,20.20
2022-08-23T05:38:20.567Z,20.25
2022-08-23T05:41:48.753Z,20.29
2022-08-23T05:45:20.687Z,20.35
2022-08-23T05:48:52.438Z,20.43
2022-08-23T05:52:21.387Z,20.51
2022-08-23T05:55:48.697Z,20.58
2022-08-23T05:59:20.620Z,20.63
2022-08-23T06:02:47.800Z,20.67
2022-08-23T06:06:18.937Z,20.74
2022-08-23T06:09:47.123Z,20.83
2022-08-23T06:13:19.312Z,20.93
2022-08-23T06:16:51.592Z,20.99
2022-08-23T06:20:23.455Z,21.01
2022-08-23T06:24:17.133Z,21.08
2022-08-23T06:27:55.351Z,21.19
2022-08-23T06:31:44.465Z,21.28
2022-08-23T06:35:37.917Z,21.38
2022-08-23T06:39:13.156Z,21.50
2022-08-23T06:43:07.013Z,21.64
2022-08-23T06:47:00.318Z,21.76
2022-08-23T06:50:32.564Z,21.83
2022-08-23T06:54:21.880Z,21.84
2022-08-23T06:57:49.302Z,21.83
2022-08-23T07:01:47.197Z,21.83
2022-08-23T07:05:20.297Z,21.87
2022-08-23T07:09:08.613Z,21.98
2022-08-23T07:12:39.876Z,22.09
2022-08-23T07:16:07.911Z,22.20
2022-08-23T07:19:39.446Z,22.27
2022-08-23T07:23:09.334Z,22.32
2022-08-23T07:26:40.242Z,22.38
2022-08-23T07:30:10.339Z,22.45
2022-08-23T07:33:41.058Z,22.49
2022-08-23T07:37:15.667Z,22.50
2022-08-23T07:40:53.880Z,22.54
2022-08-23T07:44:27.170Z,22.58
2022-08-23T07:47:58.922Z,22.64
2022-08-23T07:51:28.483Z,22.67
2022-08-23T07:54:56.767Z,22.72
2022-08-23T07:58:59.338Z,22.80
2022-08-23T08:02:55.372Z,22.90
2022-08-23T08:06:34.254Z,22.94
2022-08-23T08:10:03.752Z,22.98
2022-08-23T08:13:32.822Z,23.04
2022-08-23T08:17:03.866Z,23.11
2022-08-23T08:20:53.370Z,23.10
2022-08-23T08:24:43.206Z,23.09
2022-08-23T08:28:15.902Z,23.09
2022-08-23T08:31:50.375Z,23.08
2022-08-23T08:35:22.690Z,23.06
2022-08-23T08:38:55.474Z,23.05
2022-08-23T08:42:55.886Z,23.05
2022-08-23T08:46:31.033Z,23.08
2022-08-23T08:50:04.738Z,23.13
2022-08-23T08:53:40.518Z,23.17
2022-08-23T08:57:15.237Z,23.21
2022-08-23T09:00:47.249Z,23.26
2022-08-23T09:04:17.629Z,23.32
2022-08-23T09:08:06.420Z,23.39
2022-08-23T09:11:54.444Z,23.46
2022-08-23T09:15:35.187Z,23.53
2022-08-23T09:19:03.753Z,23.53
2022-08-23T09:22:38.162Z,23.51
2022-08-23T09:26:24.671Z,23.54
2022-08-23T09:29:59.983Z,23.64
2022-08-23T09:33:43.246Z,23.78
2022-08-23T09:37:30.560Z,23.91
2022-08-23T09:41:02.306Z,24.00
2022-08-23T09:44:42.314Z,24.17
2022-08-23T09:48:17.330Z,24.34
2022-08-23T09:51:48.235Z,24.53
2022-08-23T09:55:35.488Z,24.67
2022-08-23T09:59:49.128Z,24.80
2022-08-23T10:03:26.325Z,24.85
2022-08-23T10:07:00.985Z,24.96
2022-08-23T10:10:33.955Z,25.19
2022-08-23T10:14:03.468Z,25.55
2022-08-23T10:17:43.052Z,25.74
2022-08-23T10:21:23.798Z,25.85
2022-08-23T10:25:05.565Z,26.00
2022-08-23T10:29:03.867Z,26.08
2022-08-23T10:32:48.417Z,26.14
2022-08-23T10:36:24.702Z,26.18
2022-08-23T10:40:04.150Z,26.31
2022-08-23T10:43:40.832Z,26.52
2022-08-23T10:47:31.347Z,26.62
2022-08-23T10:51:04.002Z,26.78
2022-08-23T10:54:46.285Z,26.94
2022-08-23T10:58:24.593Z,26.86
2022-08-23T11:02:01.515Z,26.77
2022-08-23T11:05:32.025Z,26.62
2022-08-23T11:09:08.442Z,26.58
2022-08-23T11:12:39.098Z,26.64
2022-08-23T11:16:15.235Z,26.64
2022-08-23T11:19:55.265Z,26.67
2022-08-23T11:23:45.155Z,26.70
2022-08-23T11:27:26.575Z,26.62
2022-08-23T11:31:00.692Z,26.52
2022-08-23T11:34:35.158Z,26.47
2022-08-23T11:38:08.630Z,26.41
2022-08-23T11:42:05.941Z,26.40
2022-08-23T11:45:47.005Z,26.42
2022-08-23T11:49:34.458Z,26.47
2022-08-23T11:53:27.866Z,26.55
2022-08-23T11:57:09.624Z,26.69
2022-08-23T12:01:06.506Z,26.79
2022-08-23T12:04:40.281Z,26.86
2022-08-23T12:08:31.241Z,26.91
2022-08-23T12:12:15.801Z,27.01
2022-08-23T12:16:29.202Z,27.03
2022-08-23T12:20:00.339Z,27.01
2022-08-23T12:23:27.459Z,27.00
2022-08-23T12:27:05.013Z,27.01
2022-08-23T12:30:42.839Z,27.02
2022-08-23T12:34:23.566Z,26.98
2022-08-23T12:37:58.032Z,26.94
2022-08-23T12:41:28.002Z,26.94
2022-08-23T12:45:05.857Z,27.02
2022-08-23T12:48:48.104Z,27.15
2022-08-23T12:52:16.222Z,27.34
2022-08-23T12:55:47.540Z,27.53
2022-08-23T12:59:38.015Z,27.70
2022-08-23T13:03:08.674Z,27.71
2022-08-23T13:06:42.220Z,27.60
2022-08-23T13:10:12.517Z,27.54
2022-08-23T13:13:42.557Z,27.52
2022-08-23T13:17:22.675Z,27.48
2022-08-23T13:20:50.117Z,27.42
2022-08-23T13:24:39.111Z,27.37
2022-08-23T13:28:08.946Z,27.37
2022-08-23T13:31:53.169Z,27.33
2022-08-23T13:35:33.954Z,27.30
2022-08-23T13:39:08.300Z,27.27
2022-08-23T13:42:39.852Z,27.28
2022-08-23T13:46:21.783Z,27.32
2022-08-23T13:49:51.120Z,27.39
2022-08-23T13:53:18.962Z,27.46
2022-08-23T13:56:53.407Z,27.51
2022-08-23T14:00:22.932Z,27.51
2022-08-23T14:03:50.528Z,27.48
2022-08-23T14:07:18.070Z,27.46
2022-08-23T14:10:47.124Z,27.41
2022-08-23T14:14:14.267Z,27.38
2022-08-23T14:17:45.411Z,27.35
2022-08-23T14:21:12.578Z,27.26
2022-08-23T14:24:39.780Z,27.15
2022-08-23T14:28:07.144Z,27.04
2022-08-23T14:31:34.737Z,26.97
2022-08-23T14:35:02.090Z,26.89
2022-08-23T14:38:30.654Z,26.80
2022-08-23T14:41:57.626Z,26.66
2022-08-23T14:45:26.660Z,26.57
2022-08-23T14:48:55.953Z,26.49
2022-08-23T14:52:23.163Z,26.38
2022-08-23T14:56:12.236Z,26.27
2022-08-23T14:59:41.892Z,26.16
2022-08-23T15:03:12.450Z,26.11
2022-08-23T15:07:00.359Z,26.07
2022-08-23T15:10:50.557Z,26.04
2022-08-23T15:14:20.695Z,26.03
2022-08-23T15:17:54.146Z,26.02
2022-08-23T15:21:22.566Z,26.02
2022-08-23T15:24:50.442Z,26.02
2022-08-23T15:28:20.173Z,25.98
2022-08-23T15:31:47.663Z,25.96
2022-08-23T15:35:16.556Z,25.92
2022-08-23T15:38:45.352Z,25.86
2022-08-23T15:42:18.071Z,25.79
2022-08-23T15:45:48.532Z,25.72
2022-08-23T15:49:19.596Z,25.67
2022-08-23T15:52:46.885Z,25.63
2022-08-23T15:56:18.373Z,25.61
2022-08-23T15:59:45.935Z,25.58
2022-08-23T16:03:19.903Z,25.56
2022-08-23T16:06:55.638Z,25.56
2022-08-23T16:10:23.291Z,25.53
2022-08-23T16:13:55.225Z,25.50
2022-08-23T16:17:23.833Z,25.46
2022-08-23T16:20:54.304Z,25.45
2022-08-23T16:24:24.490Z,25.41
2022-08-23T16:27:52.203Z,25.38
2022-08-23T16:31:20.523Z,25.34
2022-08-23T16:34:49.713Z,25.31
2022-08-23T16:38:18.831Z,25.29
2022-08-23T16:41:46.438Z,25.30
2022-08-23T16:45:14.825Z,25.30
2022-08-23T16:48:42.056Z,25.31
2022-08-23T16:52:10.849Z,25.32
2022-08-23T16:55:39.398Z,25.31
2022-08-23T16:59:11.715Z,25.32
2022-08-23T17:02:41.211Z,25.28
2022-08-23T17:06:08.975Z,25.20
2022-08-23T17:09:36.295Z,25.10
2022-08-23T17:13:05.335Z,24.96
2022-08-23T17:16:32.867Z,24.82
2022-08-23T17:19:59.957Z,24.66
2022-08-23T17:23:27.722Z,24.53
2022-08-23T17:26:57.721Z,24.40
2022-08-23T17:30:26.988Z,24.28
2022-08-23T17:33:58.041Z,24.15
2022-08-23T17:37:25.717Z,24.05
2022-08-23T17:40:53.797Z,23.96
2022-08-23T17:44:21.894Z,23.86
2022-08-23T17:47:49.328Z,23.75
2022-08-23T17:51:16.133Z,23.66
2022-08-23T17:54:44.286Z,23.58
2022-08-23T17:58:13.740Z,23.50
2022-08-23T18:01:41.106Z,23.40
2022-08-23T18:05:10.883Z,23.32
2022-08-23T18:08:38.178Z,23.24
2022-08-23T18:12:06.908Z,23.14
2022-08-23T18:15:35.559Z,23.04
2022-08-23T18:19:10.814Z,22.95
2022-08-23T18:22:40.022Z,22.81
2022-08-23T18:26:33.872Z,22.71
2022-08-23T18:30:01.602Z,22.61
2022-08-23T18:33:32.343Z,22.56
2022-08-23T18:37:22.037Z,22.49
2022-08-23T18:40:52.798Z,22.42
2022-08-23T18:44:21.346Z,22.36
2022-08-23T18:47:50.501Z,22.35
2022-08-23T18:51:18.214Z,22.33
2022-08-23T18:54:47.344Z,22.31
2022-08-23T18:58:16.280Z,22.29
2022-08-23T19:01:45.643Z,22.25
2022-08-23T19:05:13.215Z,22.22
2022-08-23T19:08:40.748Z,22.19
2022-08-23T19:12:10.221Z,22.13
2022-08-23T19:15:40.556Z,22.08
2022-08-23T19:19:10.936Z,22.06
2022-08-23T19:22:39.178Z,22.06
2022-08-23T19:26:09.917Z,22.03
2022-08-23T19:29:41.046Z,21.98
2022-08-23T19:33:09.629Z,21.92
2022-08-23T19:36:48.291Z,21.87
2022-08-23T19:40:19.173Z,21.79
2022-08-23T19:43:55.989Z,21.74
2022-08-23T19:47:28.743Z,21.68
2022-08-23T19:51:00.256Z,21.63
2022-08-23T19:54:29.129Z,21.61
2022-08-23T19:58:00.113Z,21.60
2022-08-23T20:01:27.028Z,21.58
2022-08-23T20:04:55.058Z,21.57
2022-08-23T20:08:25.262Z,21.58
2022-08-23T20:11:55.356Z,21.58
2022-08-23T20:15:23.198Z,21.59
2022-08-23T20:18:53.096Z,21.56
2022-08-23T20:22:38.484Z,21.52
2022-08-23T20:26:06.590Z,21.48
2022-08-23T20:29:35.594Z,21.45
2022-08-23T20:33:05.272Z,21.44
2022-08-23T20:36:35.587Z,21.46
2022-08-23T20:40:07.839Z,21.48
2022-08-23T20:43:39.866Z,21.49
2022-08-23T20:47:07.889Z,21.52
2022-08-23T20:50:38.789Z,21.49
2022-08-23T20:54:12.324Z,21.47
2022-08-23T20:57:38.951Z,21.42
2022-08-23T21:01:10.179Z,21.32
2022-08-23T21:04:40.291Z,21.21
2022-08-23T21:08:07.334Z,21.09
2022-08-23T21:11:40.496Z,20.97
2022-08-23T21:15:10.887Z,20.88
2022-08-23T21:18:39.177Z,20.82
2022-08-23T21:22:06.881Z,20.77
2022-08-23T21:25:35.012Z,20.74
2022-08-23T21:29:03.036Z,20.69
2022-08-23T21:32:32.637Z,20.68
2022-08-23T21:36:00.498Z,20.71
2022-08-23T21:39:28.991Z,20.74
2022-08-23T21:42:55.980Z,20.78
2022-08-23T21:46:25.851Z,20.80
2022-08-23T21:49:53.903Z,20.83
2022-08-23T21:53:21.488Z,20.84
2022-08-23T21:56:49.040Z,20.86
2022-08-23T22:00:18.353Z,20.86
2022-08-23T22:03:46.046Z,20.84
2022-08-23T22:07:14.571Z,20.83
2022-08-23T22:10:48.168Z,20.84
2022-08-23T22:14:31.487Z,20.85
2022-08-23T22:17:59.875Z,20.83
2022-08-23T22:21:27.727Z,20.84
2022-08-23T22:24:58.170Z,20.85
2022-08-23T22:28:25.780Z,20.84
2022-08-23T22:31:56.666Z,20.84
2022-08-23T22:35:23.649Z,20.79
2022-08-23T22:38:52.125Z,20.76
2022-08-23T22:42:19.652Z,20.76
2022-08-23T22:45:55.848Z,20.76
2022-08-23T22:49:23.439Z,20.76
2022-08-23T22:52:54.173Z,20.75
2022-08-23T22:56:24.992Z,20.74
2022-08-23T22:59:55.168Z,20.72
2022-08-23T23:03:22.618Z,20.68
2022-08-23T23:06:50.906Z,20.62
2022-08-23T23:10:17.870Z,20.56
2022-08-23T23:13:45.420Z,20.50
2022-08-23T23:17:12.569Z,20.45
2022-08-23T23:20:40.473Z,20.40
2022-08-23T23:24:08.998Z,20.35
2022-08-23T23:27:35.950Z,20.31
2022-08-23T23:31:04.776Z,20.30
2022-08-23T23:34:32.148Z,20.29
2022-08-23T23:37:59.970Z,20.28
2022-08-23T23:41:27.715Z,20.24
2022-08-23T23:44:55.353Z,20.22
2022-08-23T23:48:22.175Z,20.23
2022-08-23T23:51:48.972Z,20.24
2022-08-23T23:55:18.771Z,20.26
2022-08-23T23:58:47.779Z,20.26
